Terminal Aerodrome Forecast
Issued by NWS Boise, ID

Home | Current Version | Previous Version | Text Only | Print | Product List | Glossary On
Versions: 1 2 3 4 5 6 7 8 9 10 11 12 13 14 15 16 17 18 19 20 21 22 23 24
000
FTUS45 KBOI 031130
TAFBNO
TAF
KBNO 031130Z 0312/0412 25012KT P6SM BKN150
     FM031800 24008KT P6SM BKN100
     FM040100 26010KT P6SM VCTS SCT090CB BKN100
     FM040600 28009KT P6SM SCT100=

USA.gov is the U.S. government's official web portal to all federal, state and local government web resources and services.